sensor_id;sensor_type;location;lat;lon;timestamp;pressure;altitude;pressure_sealevel;temperature
7389;BMP180;3735;50.136;11.062;2022-09-06T00:00:39;98416.00;;;17.30
7389;BMP180;3735;50.136;11.062;2022-09-06T00:03:06;98422.00;;;17.10
7389;BMP180;3735;50.136;11.062;2022-09-06T00:05:33;98421.00;;;17.00
7389;BMP180;3735;50.136;11.062;2022-09-06T00:08:02;98420.00;;;16.90
7389;BMP180;3735;50.136;11.062;2022-09-06T00:10:29;98417.00;;;16.80
7389;BMP180;3735;50.136;11.062;2022-09-06T00:13:01;98426.00;;;16.60
7389;BMP180;3735;50.136;11.062;2022-09-06T00:15:27;98409.00;;;16.50
7389;BMP180;3735;50.136;11.062;2022-09-06T00:17:57;98421.00;;;16.40
7389;BMP180;3735;50.136;11.062;2022-09-06T00:20:22;98427.00;;;16.30
7389;BMP180;3735;50.136;11.062;2022-09-06T00:22:59;98427.00;;;16.20
7389;BMP180;3735;50.136;11.062;2022-09-06T00:25:26;98423.00;;;16.10
7389;BMP180;3735;50.136;11.062;2022-09-06T00:27:58;98425.00;;;16.10
7389;BMP180;3735;50.136;11.062;2022-09-06T00:30:25;98424.00;;;16.10
7389;BMP180;3735;50.136;11.062;2022-09-06T00:32:53;98422.00;;;16.00
7389;BMP180;3735;50.136;11.062;2022-09-06T00:35:20;98419.00;;;15.90
7389;BMP180;3735;50.136;11.062;2022-09-06T00:37:46;98431.00;;;15.80
7389;BMP180;3735;50.136;11.062;2022-09-06T00:40:13;98422.00;;;15.70
7389;BMP180;3735;50.136;11.062;2022-09-06T00:42:39;98422.00;;;15.70
7389;BMP180;3735;50.136;11.062;2022-09-06T00:45:08;98425.00;;;15.60
7389;BMP180;3735;50.136;11.062;2022-09-06T00:47:37;98420.00;;;15.60
7389;BMP180;3735;50.136;11.062;2022-09-06T00:50:06;98409.00;;;15.60
7389;BMP180;3735;50.136;11.062;2022-09-06T00:52:34;98418.00;;;15.50
7389;BMP180;3735;50.136;11.062;2022-09-06T00:55:01;98421.00;;;15.50
7389;BMP180;3735;50.136;11.062;2022-09-06T00:57:28;98427.00;;;15.40
7389;BMP180;3735;50.136;11.062;2022-09-06T00:59:57;98429.00;;;15.40
7389;BMP180;3735;50.136;11.062;2022-09-06T01:02:24;98422.00;;;15.40
7389;BMP180;3735;50.136;11.062;2022-09-06T01:04:51;98413.00;;;15.30
7389;BMP180;3735;50.136;11.062;2022-09-06T01:08:20;98423.00;;;15.30
7389;BMP180;3735;50.136;11.062;2022-09-06T01:16:34;98436.00;;;15.20
7389;BMP180;3735;50.136;11.062;2022-09-06T01:25:34;98422.00;;;15.30
7389;BMP180;3735;50.136;11.062;2022-09-06T01:31:41;98427.00;;;15.20
7389;BMP180;3735;50.136;11.062;2022-09-06T01:34:20;98420.00;;;15.10
7389;BMP180;3735;50.136;11.062;2022-09-06T01:37:07;98426.00;;;15.10
7389;BMP180;3735;50.136;11.062;2022-09-06T01:39:37;98395.00;;;15.10
7389;BMP180;3735;50.136;11.062;2022-09-06T01:42:11;98418.00;;;15.10
7389;BMP180;3735;50.136;11.062;2022-09-06T01:44:45;98412.00;;;15.00
7389;BMP180;3735;50.136;11.062;2022-09-06T01:55:56;98420.00;;;14.90
7389;BMP180;3735;50.136;11.062;2022-09-06T02:01:40;98418.00;;;14.80
7389;BMP180;3735;50.136;11.062;2022-09-06T02:04:23;98391.00;;;14.70
7389;BMP180;3735;50.136;11.062;2022-09-06T02:07:02;98411.00;;;14.70
7389;BMP180;3735;50.136;11.062;2022-09-06T02:09:37;98404.00;;;14.60
7389;BMP180;3735;50.136;11.062;2022-09-06T02:12:09;98409.00;;;14.60
7389;BMP180;3735;50.136;11.062;2022-09-06T02:14:50;98378.00;;;14.60
7389;BMP180;3735;50.136;11.062;2022-09-06T02:17:24;98411.00;;;14.60
7389;BMP180;3735;50.136;11.062;2022-09-06T02:19:59;98408.00;;;14.50
7389;BMP180;3735;50.136;11.062;2022-09-06T02:22:30;98409.00;;;14.50
7389;BMP180;3735;50.136;11.062;2022-09-06T02:25:00;98400.00;;;14.40
7389;BMP180;3735;50.136;11.062;2022-09-06T02:27:27;98407.00;;;14.40
7389;BMP180;3735;50.136;11.062;2022-09-06T02:29:53;98403.00;;;14.50
7389;BMP180;3735;50.136;11.062;2022-09-06T02:32:25;98409.00;;;14.50
7389;BMP180;3735;50.136;11.062;2022-09-06T02:34:54;98402.00;;;14.50
7389;BMP180;3735;50.136;11.062;2022-09-06T02:37:23;98396.00;;;14.60
7389;BMP180;3735;50.136;11.062;2022-09-06T02:39:51;98380.00;;;14.60
7389;BMP180;3735;50.136;11.062;2022-09-06T02:42:21;98379.00;;;14.60
7389;BMP180;3735;50.136;11.062;2022-09-06T02:44:47;98385.00;;;14.60
7389;BMP180;3735;50.136;11.062;2022-09-06T02:47:14;98383.00;;;14.60
7389;BMP180;3735;50.136;11.062;2022-09-06T02:49:40;98389.00;;;14.60
7389;BMP180;3735;50.136;11.062;2022-09-06T02:52:05;98392.00;;;14.70
7389;BMP180;3735;50.136;11.062;2022-09-06T02:54:31;98387.00;;;14.80
7389;BMP180;3735;50.136;11.062;2022-09-06T02:56:57;98382.00;;;15.00
7389;BMP180;3735;50.136;11.062;2022-09-06T02:59:23;98380.00;;;15.10
7389;BMP180;3735;50.136;11.062;2022-09-06T03:01:49;98376.00;;;15.20
7389;BMP180;3735;50.136;11.062;2022-09-06T03:04:14;98365.00;;;15.20
7389;BMP180;3735;50.136;11.062;2022-09-06T03:06:40;98375.00;;;15.10
7389;BMP180;3735;50.136;11.062;2022-09-06T03:09:06;98367.00;;;15.00
7389;BMP180;3735;50.136;11.062;2022-09-06T03:11:32;98375.00;;;14.90
7389;BMP180;3735;50.136;11.062;2022-09-06T03:13:57;98379.00;;;14.80
7389;BMP180;3735;50.136;11.062;2022-09-06T03:16:23;98376.00;;;14.80
7389;BMP180;3735;50.136;11.062;2022-09-06T03:18:49;98373.00;;;14.80
7389;BMP180;3735;50.136;11.062;2022-09-06T03:21:15;98367.00;;;14.80
7389;BMP180;3735;50.136;11.062;2022-09-06T03:23:41;98371.00;;;14.80
7389;BMP180;3735;50.136;11.062;2022-09-06T03:26:07;98369.00;;;14.90
7389;BMP180;3735;50.136;11.062;2022-09-06T03:28:33;98368.00;;;14.90
7389;BMP180;3735;50.136;11.062;2022-09-06T03:30:59;98371.00;;;14.80
7389;BMP180;3735;50.136;11.062;2022-09-06T03:33:25;98381.00;;;14.80
7389;BMP180;3735;50.136;11.062;2022-09-06T03:35:58;98379.00;;;14.70
7389;BMP180;3735;50.136;11.062;2022-09-06T03:38:26;98380.00;;;14.70
7389;BMP180;3735;50.136;11.062;2022-09-06T03:40:52;98379.00;;;14.70
7389;BMP180;3735;50.136;11.062;2022-09-06T03:43:20;98373.00;;;14.60
7389;BMP180;3735;50.136;11.062;2022-09-06T03:45:52;98366.00;;;14.60
7389;BMP180;3735;50.136;11.062;2022-09-06T03:48:20;98374.00;;;14.60
7389;BMP180;3735;50.136;11.062;2022-09-06T03:50:49;98375.00;;;14.60
7389;BMP180;3735;50.136;11.062;2022-09-06T03:53:17;98373.00;;;14.60
7389;BMP180;3735;50.136;11.062;2022-09-06T03:55:50;98363.00;;;14.70
7389;BMP180;3735;50.136;11.062;2022-09-06T03:58:18;98360.00;;;14.80
7389;BMP180;3735;50.136;11.062;2022-09-06T04:00:44;98357.00;;;14.80
7389;BMP180;3735;50.136;11.062;2022-09-06T04:03:11;98351.00;;;14.80
7389;BMP180;3735;50.136;11.062;2022-09-06T04:05:37;98350.00;;;14.90
7389;BMP180;3735;50.136;11.062;2022-09-06T04:08:03;98352.00;;;14.90
7389;BMP180;3735;50.136;11.062;2022-09-06T04:10:30;98359.00;;;15.00
7389;BMP180;3735;50.136;11.062;2022-09-06T04:12:56;98344.00;;;15.00
7389;BMP180;3735;50.136;11.062;2022-09-06T04:15:22;98350.00;;;15.10
7389;BMP180;3735;50.136;11.062;2022-09-06T04:17:48;98352.00;;;15.10
7389;BMP180;3735;50.136;11.062;2022-09-06T04:20:15;98350.00;;;15.10
7389;BMP180;3735;50.136;11.062;2022-09-06T04:22:41;98337.00;;;15.10
7389;BMP180;3735;50.136;11.062;2022-09-06T04:25:08;98341.00;;;15.10
7389;BMP180;3735;50.136;11.062;2022-09-06T04:27:34;98345.00;;;15.10
7389;BMP180;3735;50.136;11.062;2022-09-06T04:30:00;98340.00;;;15.20
7389;BMP180;3735;50.136;11.062;2022-09-06T04:32:26;98337.00;;;15.20
7389;BMP180;3735;50.136;11.062;2022-09-06T04:34:52;98335.00;;;15.20
7389;BMP180;3735;50.136;11.062;2022-09-06T04:37:17;98340.00;;;15.30
7389;BMP180;3735;50.136;11.062;2022-09-06T04:39:47;98337.00;;;15.30
7389;BMP180;3735;50.136;11.062;2022-09-06T04:42:14;98346.00;;;15.40
7389;BMP180;3735;50.136;11.062;2022-09-06T04:44:39;98345.00;;;15.50
7389;BMP180;3735;50.136;11.062;2022-09-06T04:47:12;98335.00;;;15.50
7389;BMP180;3735;50.136;11.062;2022-09-06T04:49:40;98331.00;;;15.60
7389;BMP180;3735;50.136;11.062;2022-09-06T04:52:06;98335.00;;;15.70
7389;BMP180;3735;50.136;11.062;2022-09-06T04:54:32;98332.00;;;15.80
7389;BMP180;3735;50.136;11.062;2022-09-06T04:56:58;98336.00;;;15.80
7389;BMP180;3735;50.136;11.062;2022-09-06T04:59:24;98334.00;;;15.90
7389;BMP180;3735;50.136;11.062;2022-09-06T05:01:50;98337.00;;;16.00
7389;BMP180;3735;50.136;11.062;2022-09-06T05:04:16;98338.00;;;16.00
7389;BMP180;3735;50.136;11.062;2022-09-06T05:06:41;98341.00;;;16.00
7389;BMP180;3735;50.136;11.062;2022-09-06T05:09:08;98337.00;;;16.10
7389;BMP180;3735;50.136;11.062;2022-09-06T05:11:34;98336.00;;;16.10
7389;BMP180;3735;50.136;11.062;2022-09-06T05:14:00;98321.00;;;16.20
7389;BMP180;3735;50.136;11.062;2022-09-06T05:16:25;98330.00;;;16.30
7389;BMP180;3735;50.136;11.062;2022-09-06T05:18:51;98331.00;;;16.30
7389;BMP180;3735;50.136;11.062;2022-09-06T05:21:17;98331.00;;;16.40
7389;BMP180;3735;50.136;11.062;2022-09-06T05:23:44;98336.00;;;16.60
7389;BMP180;3735;50.136;11.062;2022-09-06T05:26:10;98335.00;;;16.70
7389;BMP180;3735;50.136;11.062;2022-09-06T05:28:35;98337.00;;;16.80
7389;BMP180;3735;50.136;11.062;2022-09-06T05:31:10;98341.00;;;16.90
7389;BMP180;3735;50.136;11.062;2022-09-06T05:33:36;98325.00;;;17.00
7389;BMP180;3735;50.136;11.062;2022-09-06T05:36:04;98329.00;;;17.10
7389;BMP180;3735;50.136;11.062;2022-09-06T05:38:30;98324.00;;;17.20
7389;BMP180;3735;50.136;11.062;2022-09-06T05:40:56;98335.00;;;17.30
7389;BMP180;3735;50.136;11.062;2022-09-06T05:43:22;98340.00;;;17.40
7389;BMP180;3735;50.136;11.062;2022-09-06T05:45:48;98352.00;;;17.40
7389;BMP180;3735;50.136;11.062;2022-09-06T05:48:14;98341.00;;;17.40
7389;BMP180;3735;50.136;11.062;2022-09-06T05:50:40;98347.00;;;17.50
7389;BMP180;3735;50.136;11.062;2022-09-06T05:53:06;98353.00;;;17.60
7389;BMP180;3735;50.136;11.062;2022-09-06T05:55:32;98353.00;;;17.70
7389;BMP180;3735;50.136;11.062;2022-09-06T05:57:57;98358.00;;;17.70
7389;BMP180;3735;50.136;11.062;2022-09-06T06:00:23;98357.00;;;17.70
7389;BMP180;3735;50.136;11.062;2022-09-06T06:02:50;98354.00;;;17.90
7389;BMP180;3735;50.136;11.062;2022-09-06T06:05:16;98348.00;;;18.00
7389;BMP180;3735;50.136;11.062;2022-09-06T06:07:43;98354.00;;;18.10
7389;BMP180;3735;50.136;11.062;2022-09-06T06:10:09;98354.00;;;18.20
7389;BMP180;3735;50.136;11.062;2022-09-06T06:12:35;98358.00;;;18.30
7389;BMP180;3735;50.136;11.062;2022-09-06T06:15:01;98363.00;;;18.40
7389;BMP180;3735;50.136;11.062;2022-09-06T06:17:27;98356.00;;;18.50
7389;BMP180;3735;50.136;11.062;2022-09-06T06:19:52;98340.00;;;18.50
7389;BMP180;3735;50.136;11.062;2022-09-06T06:22:19;98360.00;;;18.60
7389;BMP180;3735;50.136;11.062;2022-09-06T06:24:45;98350.00;;;18.80
7389;BMP180;3735;50.136;11.062;2022-09-06T06:27:10;98359.00;;;18.90
7389;BMP180;3735;50.136;11.062;2022-09-06T06:29:36;98353.00;;;19.20
7389;BMP180;3735;50.136;11.062;2022-09-06T06:32:02;98354.00;;;19.40
7389;BMP180;3735;50.136;11.062;2022-09-06T06:34:28;98350.00;;;19.60
7389;BMP180;3735;50.136;11.062;2022-09-06T06:36:54;98358.00;;;19.90
7389;BMP180;3735;50.136;11.062;2022-09-06T06:39:20;98339.00;;;20.20
7389;BMP180;3735;50.136;11.062;2022-09-06T06:41:46;98352.00;;;20.50
7389;BMP180;3735;50.136;11.062;2022-09-06T06:44:14;98352.00;;;20.70
7389;BMP180;3735;50.136;11.062;2022-09-06T06:46:39;98345.00;;;21.20
7389;BMP180;3735;50.136;11.062;2022-09-06T06:49:06;98344.00;;;21.60
7389;BMP180;3735;50.136;11.062;2022-09-06T06:51:34;98339.00;;;21.60
7389;BMP180;3735;50.136;11.062;2022-09-06T06:54:04;98338.00;;;21.90
7389;BMP180;3735;50.136;11.062;2022-09-06T06:56:32;98340.00;;;21.80
7389;BMP180;3735;50.136;11.062;2022-09-06T06:59:02;98341.00;;;21.60
7389;BMP180;3735;50.136;11.062;2022-09-06T07:01:31;98349.00;;;21.60
7389;BMP180;3735;50.136;11.062;2022-09-06T07:03:58;98341.00;;;21.60
7389;BMP180;3735;50.136;11.062;2022-09-06T07:06:24;98339.00;;;21.50
7389;BMP180;3735;50.136;11.062;2022-09-06T07:08:52;98339.00;;;21.40
7389;BMP180;3735;50.136;11.062;2022-09-06T07:11:18;98337.00;;;21.20
7389;BMP180;3735;50.136;11.062;2022-09-06T07:13:44;98339.00;;;21.00
7389;BMP180;3735;50.136;11.062;2022-09-06T07:16:22;98349.00;;;21.00
7389;BMP180;3735;50.136;11.062;2022-09-06T07:18:53;98341.00;;;21.00
7389;BMP180;3735;50.136;11.062;2022-09-06T07:21:22;98345.00;;;20.60
7389;BMP180;3735;50.136;11.062;2022-09-06T07:23:52;98345.00;;;20.70
7389;BMP180;3735;50.136;11.062;2022-09-06T07:26:24;98354.00;;;20.60
7389;BMP180;3735;50.136;11.062;2022-09-06T07:28:56;98349.00;;;20.70
7389;BMP180;3735;50.136;11.062;2022-09-06T07:31:22;98351.00;;;20.50
7389;BMP180;3735;50.136;11.062;2022-09-06T07:33:49;98353.00;;;20.60
7389;BMP180;3735;50.136;11.062;2022-09-06T07:36:15;98346.00;;;20.70
7389;BMP180;3735;50.136;11.062;2022-09-06T07:38:42;98344.00;;;20.80
7389;BMP180;3735;50.136;11.062;2022-09-06T07:41:09;98345.00;;;20.80
7389;BMP180;3735;50.136;11.062;2022-09-06T07:43:35;98341.00;;;20.90
7389;BMP180;3735;50.136;11.062;2022-09-06T07:48:36;98335.00;;;21.40
7389;BMP180;3735;50.136;11.062;2022-09-06T07:51:17;98336.00;;;21.50
7389;BMP180;3735;50.136;11.062;2022-09-06T07:53:49;98341.00;;;21.90
7389;BMP180;3735;50.136;11.062;2022-09-06T07:56:17;98334.00;;;22.10
7389;BMP180;3735;50.136;11.062;2022-09-06T07:58:43;98344.00;;;22.10
7389;BMP180;3735;50.136;11.062;2022-09-06T08:03:53;98355.00;;;21.90
7389;BMP180;3735;50.136;11.062;2022-09-06T08:06:21;98354.00;;;21.60
7389;BMP180;3735;50.136;11.062;2022-09-06T08:08:48;98374.00;;;21.30
7389;BMP180;3735;50.136;11.062;2022-09-06T08:11:15;98364.00;;;21.10
7389;BMP180;3735;50.136;11.062;2022-09-06T08:13:41;98364.00;;;21.10
7389;BMP180;3735;50.136;11.062;2022-09-06T08:16:09;98364.00;;;20.90
7389;BMP180;3735;50.136;11.062;2022-09-06T08:18:36;98348.00;;;20.90
7389;BMP180;3735;50.136;11.062;2022-09-06T08:21:14;98343.00;;;20.70
7389;BMP180;3735;50.136;11.062;2022-09-06T08:23:52;98360.00;;;20.60
7389;BMP180;3735;50.136;11.062;2022-09-06T08:26:21;98354.00;;;20.50
7389;BMP180;3735;50.136;11.062;2022-09-06T08:28:57;98360.00;;;20.40
7389;BMP180;3735;50.136;11.062;2022-09-06T08:31:26;98366.00;;;20.60
7389;BMP180;3735;50.136;11.062;2022-09-06T08:33:53;98369.00;;;20.90
7389;BMP180;3735;50.136;11.062;2022-09-06T08:36:19;98360.00;;;21.30
7389;BMP180;3735;50.136;11.062;2022-09-06T08:38:45;98365.00;;;21.70
7389;BMP180;3735;50.136;11.062;2022-09-06T08:41:22;98357.00;;;22.00
7389;BMP180;3735;50.136;11.062;2022-09-06T08:44:05;98353.00;;;22.50
7389;BMP180;3735;50.136;11.062;2022-09-06T08:49:12;98337.00;;;24.00
7389;BMP180;3735;50.136;11.062;2022-09-06T08:55:26;98340.00;;;25.10
7389;BMP180;3735;50.136;11.062;2022-09-06T09:01:01;98342.00;;;25.00
7389;BMP180;3735;50.136;11.062;2022-09-06T09:03:37;98338.00;;;25.30
7389;BMP180;3735;50.136;11.062;2022-09-06T09:06:07;98340.00;;;25.20
7389;BMP180;3735;50.136;11.062;2022-09-06T09:08:46;98343.00;;;25.30
7389;BMP180;3735;50.136;11.062;2022-09-06T09:11:19;98329.00;;;25.20
7389;BMP180;3735;50.136;11.062;2022-09-06T09:16:13;98334.00;;;24.60
7389;BMP180;3735;50.136;11.062;2022-09-06T09:18:43;98337.00;;;24.50
7389;BMP180;3735;50.136;11.062;2022-09-06T09:21:11;98339.00;;;24.30
7389;BMP180;3735;50.136;11.062;2022-09-06T09:23:37;98337.00;;;24.30
7389;BMP180;3735;50.136;11.062;2022-09-06T09:26:12;98336.00;;;23.90
7389;BMP180;3735;50.136;11.062;2022-09-06T09:29:08;98332.00;;;23.80
7389;BMP180;3735;50.136;11.062;2022-09-06T09:31:48;98325.00;;;23.90
7389;BMP180;3735;50.136;11.062;2022-09-06T09:34:36;98322.00;;;23.80
7389;BMP180;3735;50.136;11.062;2022-09-06T09:37:24;98316.00;;;23.80
7389;BMP180;3735;50.136;11.062;2022-09-06T09:39:57;98325.00;;;24.10
7389;BMP180;3735;50.136;11.062;2022-09-06T09:42:35;98317.00;;;24.90
7389;BMP180;3735;50.136;11.062;2022-09-06T09:47:47;98315.00;;;26.90
7389;BMP180;3735;50.136;11.062;2022-09-06T09:50:33;98311.00;;;26.80
7389;BMP180;3735;50.136;11.062;2022-09-06T09:53:12;98308.00;;;26.90
7389;BMP180;3735;50.136;11.062;2022-09-06T09:55:40;98312.00;;;26.80
7389;BMP180;3735;50.136;11.062;2022-09-06T09:58:24;98308.00;;;27.60
7389;BMP180;3735;50.136;11.062;2022-09-06T10:01:31;98305.00;;;29.40
7389;BMP180;3735;50.136;11.062;2022-09-06T10:04:07;98299.00;;;30.40
7389;BMP180;3735;50.136;11.062;2022-09-06T10:06:35;98301.00;;;31.50
7389;BMP180;3735;50.136;11.062;2022-09-06T10:09:21;98301.00;;;31.90
7389;BMP180;3735;50.136;11.062;2022-09-06T10:11:57;98303.00;;;32.20
7389;BMP180;3735;50.136;11.062;2022-09-06T10:14:42;98300.00;;;33.60
7389;BMP180;3735;50.136;11.062;2022-09-06T10:17:47;98305.00;;;33.60
7389;BMP180;3735;50.136;11.062;2022-09-06T10:20:14;98310.00;;;33.50
7389;BMP180;3735;50.136;11.062;2022-09-06T10:25:39;98316.00;;;33.30
7389;BMP180;3735;50.136;11.062;2022-09-06T10:39:48;98325.00;;;29.90
7389;BMP180;3735;50.136;11.062;2022-09-06T10:42:50;98323.00;;;29.20
7389;BMP180;3735;50.136;11.062;2022-09-06T10:45:56;98323.00;;;28.60
7389;BMP180;3735;50.136;11.062;2022-09-06T10:48:41;98321.00;;;29.20
7389;BMP180;3735;50.136;11.062;2022-09-06T10:51:51;98322.00;;;30.10
7389;BMP180;3735;50.136;11.062;2022-09-06T10:54:22;98326.00;;;30.70
7389;BMP180;3735;50.136;11.062;2022-09-06T10:56:59;98316.00;;;30.30
7389;BMP180;3735;50.136;11.062;2022-09-06T10:59:33;98321.00;;;30.30
7389;BMP180;3735;50.136;11.062;2022-09-06T11:02:11;98316.00;;;31.30
7389;BMP180;3735;50.136;11.062;2022-09-06T11:04:42;98311.00;;;32.70
7389;BMP180;3735;50.136;11.062;2022-09-06T11:07:36;98315.00;;;33.90
7389;BMP180;3735;50.136;11.062;2022-09-06T11:13:05;98309.00;;;35.10
7389;BMP180;3735;50.136;11.062;2022-09-06T11:15:50;98306.00;;;35.00
7389;BMP180;3735;50.136;11.062;2022-09-06T11:18:31;98305.00;;;33.80
7389;BMP180;3735;50.136;11.062;2022-09-06T11:27:26;98298.00;;;33.90
7389;BMP180;3735;50.136;11.062;2022-09-06T11:30:00;98300.00;;;34.50
7389;BMP180;3735;50.136;11.062;2022-09-06T11:32:38;98302.00;;;35.80
7389;BMP180;3735;50.136;11.062;2022-09-06T11:35:20;98297.00;;;35.20
7389;BMP180;3735;50.136;11.062;2022-09-06T11:40:29;98299.00;;;35.10
7389;BMP180;3735;50.136;11.062;2022-09-06T11:53:34;98285.00;;;34.70
7389;BMP180;3735;50.136;11.062;2022-09-06T12:06:22;98278.00;;;37.50
7389;BMP180;3735;50.136;11.062;2022-09-06T12:08:53;98278.00;;;37.80
7389;BMP180;3735;50.136;11.062;2022-09-06T12:11:43;98274.00;;;38.70
7389;BMP180;3735;50.136;11.062;2022-09-06T12:25:03;98273.00;;;36.90
7389;BMP180;3735;50.136;11.062;2022-09-06T12:27:34;98267.00;;;36.90
7389;BMP180;3735;50.136;11.062;2022-09-06T12:30:07;98274.00;;;37.20
7389;BMP180;3735;50.136;11.062;2022-09-06T12:32:40;98265.00;;;38.00
7389;BMP180;3735;50.136;11.062;2022-09-06T12:35:22;98257.00;;;36.50
7389;BMP180;3735;50.136;11.062;2022-09-06T12:40:47;98252.00;;;36.50
7389;BMP180;3735;50.136;11.062;2022-09-06T12:43:15;98249.00;;;35.70
7389;BMP180;3735;50.136;11.062;2022-09-06T12:45:50;98249.00;;;35.60
7389;BMP180;3735;50.136;11.062;2022-09-06T12:48:33;98249.00;;;35.60
7389;BMP180;3735;50.136;11.062;2022-09-06T12:51:07;98247.00;;;35.90
7389;BMP180;3735;50.136;11.062;2022-09-06T12:53:38;98241.00;;;36.10
7389;BMP180;3735;50.136;11.062;2022-09-06T12:56:07;98252.00;;;37.70
7389;BMP180;3735;50.136;11.062;2022-09-06T12:58:35;98250.00;;;38.30
7389;BMP180;3735;50.136;11.062;2022-09-06T13:04:13;98255.00;;;38.60
7389;BMP180;3735;50.136;11.062;2022-09-06T13:06:46;98240.00;;;38.50
7389;BMP180;3735;50.136;11.062;2022-09-06T13:09:17;98232.00;;;38.30
7389;BMP180;3735;50.136;11.062;2022-09-06T13:11:51;98231.00;;;38.50
7389;BMP180;3735;50.136;11.062;2022-09-06T13:14:25;98239.00;;;39.40
7389;BMP180;3735;50.136;11.062;2022-09-06T13:16:53;98226.00;;;38.60
7389;BMP180;3735;50.136;11.062;2022-09-06T13:19:38;98230.00;;;38.00
7389;BMP180;3735;50.136;11.062;2022-09-06T13:22:08;98224.00;;;38.60
7389;BMP180;3735;50.136;11.062;2022-09-06T13:27:25;98212.00;;;37.10
7389;BMP180;3735;50.136;11.062;2022-09-06T13:30:06;98211.00;;;38.20
7389;BMP180;3735;50.136;11.062;2022-09-06T13:32:36;98202.00;;;37.90
7389;BMP180;3735;50.136;11.062;2022-09-06T13:35:09;98204.00;;;38.60
7389;BMP180;3735;50.136;11.062;2022-09-06T13:37:37;98202.00;;;38.80
7389;BMP180;3735;50.136;11.062;2022-09-06T13:40:41;98203.00;;;36.80
7389;BMP180;3735;50.136;11.062;2022-09-06T13:43:11;98205.00;;;37.00
7389;BMP180;3735;50.136;11.062;2022-09-06T13:45:38;98195.00;;;37.30
7389;BMP180;3735;50.136;11.062;2022-09-06T13:48:04;98189.00;;;38.30
7389;BMP180;3735;50.136;11.062;2022-09-06T13:50:31;98194.00;;;38.40
7389;BMP180;3735;50.136;11.062;2022-09-06T13:52:57;98192.00;;;38.60
7389;BMP180;3735;50.136;11.062;2022-09-06T13:55:29;98187.00;;;38.60
7389;BMP180;3735;50.136;11.062;2022-09-06T13:57:56;98185.00;;;37.80
7389;BMP180;3735;50.136;11.062;2022-09-06T14:00:21;98190.00;;;38.30
7389;BMP180;3735;50.136;11.062;2022-09-06T14:02:48;98192.00;;;37.00
7389;BMP180;3735;50.136;11.062;2022-09-06T14:05:15;98183.00;;;35.60
7389;BMP180;3735;50.136;11.062;2022-09-06T14:07:43;98185.00;;;35.50
7389;BMP180;3735;50.136;11.062;2022-09-06T14:10:10;98185.00;;;36.20
7389;BMP180;3735;50.136;11.062;2022-09-06T14:12:36;98189.00;;;35.80
7389;BMP180;3735;50.136;11.062;2022-09-06T14:15:04;98185.00;;;34.20
7389;BMP180;3735;50.136;11.062;2022-09-06T14:17:30;98188.00;;;33.50
7389;BMP180;3735;50.136;11.062;2022-09-06T14:19:57;98185.00;;;34.00
7389;BMP180;3735;50.136;11.062;2022-09-06T14:22:23;98180.00;;;34.00
7389;BMP180;3735;50.136;11.062;2022-09-06T14:24:49;98176.00;;;35.20
7389;BMP180;3735;50.136;11.062;2022-09-06T14:27:15;98177.00;;;36.10
7389;BMP180;3735;50.136;11.062;2022-09-06T14:29:42;98184.00;;;36.80
7389;BMP180;3735;50.136;11.062;2022-09-06T14:32:08;98178.00;;;36.30
7389;BMP180;3735;50.136;11.062;2022-09-06T14:34:34;98183.00;;;36.30
7389;BMP180;3735;50.136;11.062;2022-09-06T14:37:00;98186.00;;;36.10
7389;BMP180;3735;50.136;11.062;2022-09-06T14:39:26;98183.00;;;33.40
7389;BMP180;3735;50.136;11.062;2022-09-06T14:41:52;98184.00;;;32.70
7389;BMP180;3735;50.136;11.062;2022-09-06T14:44:18;98183.00;;;31.40
7389;BMP180;3735;50.136;11.062;2022-09-06T14:46:44;98174.00;;;30.90
7389;BMP180;3735;50.136;11.062;2022-09-06T14:49:12;98183.00;;;31.20
7389;BMP180;3735;50.136;11.062;2022-09-06T14:51:38;98171.00;;;31.00
7389;BMP180;3735;50.136;11.062;2022-09-06T14:54:09;98183.00;;;31.60
7389;BMP180;3735;50.136;11.062;2022-09-06T14:56:37;98182.00;;;31.70
7389;BMP180;3735;50.136;11.062;2022-09-06T14:59:05;98172.00;;;30.90
7389;BMP180;3735;50.136;11.062;2022-09-06T15:01:32;98167.00;;;30.40
7389;BMP180;3735;50.136;11.062;2022-09-06T15:04:01;98176.00;;;30.30
7389;BMP180;3735;50.136;11.062;2022-09-06T15:06:30;98168.00;;;30.10
7389;BMP180;3735;50.136;11.062;2022-09-06T15:08:57;98165.00;;;30.40
7389;BMP180;3735;50.136;11.062;2022-09-06T15:14:10;98157.00;;;32.70
7389;BMP180;3735;50.136;11.062;2022-09-06T15:16:37;98154.00;;;33.40
7389;BMP180;3735;50.136;11.062;2022-09-06T15:19:04;98153.00;;;34.40
7389;BMP180;3735;50.136;11.062;2022-09-06T15:21:31;98153.00;;;34.30
7389;BMP180;3735;50.136;11.062;2022-09-06T15:23:57;98144.00;;;33.50
7389;BMP180;3735;50.136;11.062;2022-09-06T15:26:24;98142.00;;;33.40
7389;BMP180;3735;50.136;11.062;2022-09-06T15:28:51;98145.00;;;33.80
7389;BMP180;3735;50.136;11.062;2022-09-06T15:31:17;98148.00;;;34.20
7389;BMP180;3735;50.136;11.062;2022-09-06T15:33:44;98146.00;;;33.70
7389;BMP180;3735;50.136;11.062;2022-09-06T15:36:10;98138.00;;;33.00
7389;BMP180;3735;50.136;11.062;2022-09-06T15:38:44;98130.00;;;31.90
7389;BMP180;3735;50.136;11.062;2022-09-06T15:41:22;98134.00;;;30.90
7389;BMP180;3735;50.136;11.062;2022-09-06T15:43:58;98138.00;;;30.80
7389;BMP180;3735;50.136;11.062;2022-09-06T15:46:51;98135.00;;;30.10
7389;BMP180;3735;50.136;11.062;2022-09-06T15:49:28;98132.00;;;30.40
7389;BMP180;3735;50.136;11.062;2022-09-06T15:51:57;98133.00;;;31.40
7389;BMP180;3735;50.136;11.062;2022-09-06T15:54:26;98122.00;;;32.20
7389;BMP180;3735;50.136;11.062;2022-09-06T15:57:12;98126.00;;;32.30
7389;BMP180;3735;50.136;11.062;2022-09-06T15:59:39;98127.00;;;32.30
7389;BMP180;3735;50.136;11.062;2022-09-06T16:02:06;98122.00;;;32.50
7389;BMP180;3735;50.136;11.062;2022-09-06T16:04:32;98120.00;;;32.70
7389;BMP180;3735;50.136;11.062;2022-09-06T16:06:58;98121.00;;;33.20
7389;BMP180;3735;50.136;11.062;2022-09-06T16:09:24;98121.00;;;33.40
7389;BMP180;3735;50.136;11.062;2022-09-06T16:11:50;98116.00;;;33.30
7389;BMP180;3735;50.136;11.062;2022-09-06T16:14:16;98109.00;;;32.90
7389;BMP180;3735;50.136;11.062;2022-09-06T16:16:42;98114.00;;;32.60
7389;BMP180;3735;50.136;11.062;2022-09-06T16:19:10;98111.00;;;32.40
7389;BMP180;3735;50.136;11.062;2022-09-06T16:21:39;98107.00;;;32.40
7389;BMP180;3735;50.136;11.062;2022-09-06T16:24:09;98112.00;;;32.40
7389;BMP180;3735;50.136;11.062;2022-09-06T16:26:42;98108.00;;;32.30
7389;BMP180;3735;50.136;11.062;2022-09-06T16:29:11;98096.00;;;32.40
7389;BMP180;3735;50.136;11.062;2022-09-06T16:31:37;98100.00;;;32.50
7389;BMP180;3735;50.136;11.062;2022-09-06T16:34:03;98100.00;;;32.20
7389;BMP180;3735;50.136;11.062;2022-09-06T16:36:29;98100.00;;;31.90